Hitachimaru — JD2063 — position and weather

sailwx.info

Track history (hours):
 
Tides and Currents Weather Stations Pressure Air Temp Water Temp Dewpoint Dewpoint Depression Visibility Wind Speed Wind Dir Waves Ship Positions

Hitachimaru

Last reported at 2017-Oct-20 13:10 UTC. Time now 2017-Oct-22 12:16 UTC.
Position N 34°35' E 135°28'.

Length 83 m; draft 4.7 m.

Type: Cargo ship. MMSI: 431301756.

Date/timePositionNaut miles runAvg speedWind from/ knotsBaromVisibWave heightAir tempDewpointWater temp
2017-Oct-20 13:10N 34°35' E 135°28'0 0.5
2017-Oct-20 12:59N 34°35' E 135°28'1 3.0
2017-Oct-20 12:29N 34°34' E 135°27'0 0.0
2017-Oct-20 04:57N 34°34' E 135°27'1 0.2
2017-Oct-19 21:16N 34°35' E 135°28'0 1.7
2017-Oct-19 21:00N 34°35' E 135°27'1 0.1
2017-Oct-19 07:25N 34°34' E 135°27'0 0.7
2017-Oct-19 07:01N 34°34' E 135°27'1 0.2
2017-Oct-18 23:40N 34°35' E 135°28'0 0.0
2017-Oct-18 23:16N 34°35' E 135°28'0 0.0
2017-Oct-18 22:52N 34°35' E 135°28'0 0.0
2017-Oct-18 22:04N 34°35' E 135°28'0 0.5
2017-Oct-18 21:58N 34°35' E 135°28'0 0.2
2017-Oct-18 21:29N 34°35' E 135°28'1 0.1
2017-Oct-18 06:53N 34°34' E 135°27'1 0.1
2017-Oct-17 22:13N 34°35' E 135°28'0 0.2
2017-Oct-17 21:42N 34°35' E 135°28'1 3.5
2017-Oct-17 21:30N 34°35' E 135°27'1 0.1
2017-Oct-17 08:05N 34°34' E 135°27'0 2.8
2017-Oct-17 08:00N 34°35' E 135°27'1 2.0
2017-Oct-17 07:30N 34°35' E 135°28'0 0.0
2017-Oct-17 00:03N 34°35' E 135°28'0 0.1
2017-Oct-16 23:33N 34°35' E 135°28'0 0.5
2017-Oct-16 23:27N 34°35' E 135°28'0 0.0
2017-Oct-16 22:51N 34°35' E 135°28'0 0.0
2017-Oct-16 22:27N 34°35' E 135°28'0 0.0
2017-Oct-16 21:57N 34°35' E 135°28'0 0.0
2017-Oct-16 20:39N 34°35' E 135°28'0 0.0
2017-Oct-16 20:21N 34°35' E 135°28'0 0.0
2017-Oct-16 19:57N 34°35' E 135°28'0 0.1
2017-Oct-16 19:27N 34°35' E 135°28'0 0.0
2017-Oct-16 18:57N 34°35' E 135°28'0 0.1
2017-Oct-16 18:27N 34°35' E 135°28'0 0.1
2017-Oct-16 17:57N 34°35' E 135°28'0 0.0
2017-Oct-16 16:51N 34°35' E 135°28'0 0.0
2017-Oct-16 16:15N 34°35' E 135°28'0 0.0
2017-Oct-16 15:57N 34°35' E 135°28'0 0.0
2017-Oct-16 15:21N 34°35' E 135°28'0 0.1
2017-Oct-16 14:51N 34°35' E 135°28'0 0.0
2017-Oct-16 13:27N 34°35' E 135°28'0 0.0
2017-Oct-16 12:57N 34°35' E 135°28'0 0.0
2017-Oct-16 11:45N 34°35' E 135°28'0 0.0
2017-Oct-16 11:27N 34°35' E 135°28'0 0.0
2017-Oct-16 10:27N 34°35' E 135°28'0 0.0
2017-Oct-16 05:09N 34°35' E 135°28'0 0.0
2017-Oct-16 00:03N 34°35' E 135°28'0 0.1
2017-Oct-15 23:39N 34°35' E 135°28'0 0.0
2017-Oct-15 22:27N 34°35' E 135°28'0 0.0
2017-Oct-15 21:51N 34°35' E 135°28'0 0.0
2017-Oct-15 21:15N 34°35' E 135°28'0 0.0
2017-Oct-15 20:57N 34°35' E 135°28'0 0.0
2017-Oct-15 20:27N 34°35' E 135°28'0 0.0
2017-Oct-15 19:56N 34°35' E 135°28'0 0.1
2017-Oct-15 19:26N 34°35' E 135°28'0 0.1
2017-Oct-15 18:56N 34°35' E 135°28'0 0.1
2017-Oct-15 18:26N 34°35' E 135°28'0 0.1
2017-Oct-15 17:56N 34°35' E 135°28'0 0.1
2017-Oct-15 17:20N 34°35' E 135°28'0 0.0
2017-Oct-15 16:56N 34°35' E 135°28'0 0.0
2017-Oct-15 16:14N 34°35' E 135°28'0 0.0
2017-Oct-15 15:56N 34°35' E 135°28'0 0.1
2017-Oct-15 15:20N 34°35' E 135°28'0 0.1
2017-Oct-15 14:56N 34°35' E 135°28'0 0.0
2017-Oct-15 13:38N 34°35' E 135°28'0 0.0
2017-Oct-15 13:27N 34°35' E 135°28'1 1.3
2017-Oct-15 13:00N 34°35' E 135°27'5 9.8
2017-Oct-15 12:30N 34°36' E 135°21'612.4
2017-Oct-15 12:00N 34°35' E 135°14'612.7
2017-Oct-15 11:30N 34°35' E 135°06'611.7
2017-Oct-15 10:59N 34°37' E 134°59'711.5
2017-Oct-15 10:25N 34°38' E 134°51'612.5
2017-Oct-15 09:56N 34°41' E 134°45'14 0.7
2017-Oct-14 15:12N 34°37' E 135°01'2 9.0
2017-Oct-14 14:59N 34°36' E 135°03'4 7.8
2017-Oct-14 14:30N 34°33' E 135°05'611.1
2017-Oct-14 14:00N 34°27' E 135°03'611.0
2017-Oct-14 13:29N 34°22' E 135°01'510.1
2017-Oct-14 12:57N 34°17' E 134°59'510.7
2017-Oct-14 12:30N 34°12' E 134°60'611.5
2017-Oct-14 11:58N 34°06' E 135°01'  
Track history (hours):
 
Tides and Currents Weather Stations Pressure Air Temp Water Temp Dewpoint Dewpoint Depression Visibility Wind Speed Wind Dir Waves Ship Positions

Hitachimaru

Last reported at 2017-Oct-20 13:10 UTC. Time now 2017-Oct-22 12:16 UTC.
Position N 34°35' E 135°28'.

Length 83 m; draft 4.7 m.

Type: Cargo ship. MMSI: 431301756.

Date/timePositionNaut miles runAvg speedWind from/ knotsBaromVisibWave heightAir tempDewpointWater temp
2017-Oct-20 13:10N 34°35' E 135°28'0 0.5
2017-Oct-20 12:59N 34°35' E 135°28'1 3.0
2017-Oct-20 12:29N 34°34' E 135°27'0 0.0
2017-Oct-20 04:57N 34°34' E 135°27'1 0.2
2017-Oct-19 21:16N 34°35' E 135°28'0 1.7
2017-Oct-19 21:00N 34°35' E 135°27'1 0.1
2017-Oct-19 07:25N 34°34' E 135°27'0 0.7
2017-Oct-19 07:01N 34°34' E 135°27'1 0.2
2017-Oct-18 23:40N 34°35' E 135°28'0 0.0
2017-Oct-18 23:16N 34°35' E 135°28'0 0.0
2017-Oct-18 22:52N 34°35' E 135°28'0 0.0
2017-Oct-18 22:04N 34°35' E 135°28'0 0.5
2017-Oct-18 21:58N 34°35' E 135°28'0 0.2
2017-Oct-18 21:29N 34°35' E 135°28'1 0.1
2017-Oct-18 06:53N 34°34' E 135°27'1 0.1
2017-Oct-17 22:13N 34°35' E 135°28'0 0.2
2017-Oct-17 21:42N 34°35' E 135°28'1 3.5
2017-Oct-17 21:30N 34°35' E 135°27'1 0.1
2017-Oct-17 08:05N 34°34' E 135°27'0 2.8
2017-Oct-17 08:00N 34°35' E 135°27'1 2.0
2017-Oct-17 07:30N 34°35' E 135°28'0 0.0
2017-Oct-17 00:03N 34°35' E 135°28'0 0.1
2017-Oct-16 23:33N 34°35' E 135°28'0 0.5
2017-Oct-16 23:27N 34°35' E 135°28'0 0.0
2017-Oct-16 22:51N 34°35' E 135°28'0 0.0
2017-Oct-16 22:27N 34°35' E 135°28'0 0.0
2017-Oct-16 21:57N 34°35' E 135°28'0 0.0
2017-Oct-16 20:39N 34°35' E 135°28'0 0.0
2017-Oct-16 20:21N 34°35' E 135°28'0 0.0
2017-Oct-16 19:57N 34°35' E 135°28'0 0.1
2017-Oct-16 19:27N 34°35' E 135°28'0 0.0
2017-Oct-16 18:57N 34°35' E 135°28'0 0.1
2017-Oct-16 18:27N 34°35' E 135°28'0 0.1
2017-Oct-16 17:57N 34°35' E 135°28'0 0.0
2017-Oct-16 16:51N 34°35' E 135°28'0 0.0
2017-Oct-16 16:15N 34°35' E 135°28'0 0.0
2017-Oct-16 15:57N 34°35' E 135°28'0 0.0
2017-Oct-16 15:21N 34°35' E 135°28'0 0.1
2017-Oct-16 14:51N 34°35' E 135°28'0 0.0
2017-Oct-16 13:27N 34°35' E 135°28'0 0.0
2017-Oct-16 12:57N 34°35' E 135°28'0 0.0
2017-Oct-16 11:45N 34°35' E 135°28'0 0.0
2017-Oct-16 11:27N 34°35' E 135°28'0 0.0
2017-Oct-16 10:27N 34°35' E 135°28'0 0.0
2017-Oct-16 05:09N 34°35' E 135°28'0 0.0
2017-Oct-16 00:03N 34°35' E 135°28'0 0.1
2017-Oct-15 23:39N 34°35' E 135°28'0 0.0
2017-Oct-15 22:27N 34°35' E 135°28'0 0.0
2017-Oct-15 21:51N 34°35' E 135°28'0 0.0
2017-Oct-15 21:15N 34°35' E 135°28'0 0.0
2017-Oct-15 20:57N 34°35' E 135°28'0 0.0
2017-Oct-15 20:27N 34°35' E 135°28'0 0.0
2017-Oct-15 19:56N 34°35' E 135°28'0 0.1
2017-Oct-15 19:26N 34°35' E 135°28'0 0.1
2017-Oct-15 18:56N 34°35' E 135°28'0 0.1
2017-Oct-15 18:26N 34°35' E 135°28'0 0.1
2017-Oct-15 17:56N 34°35' E 135°28'0 0.1
2017-Oct-15 17:20N 34°35' E 135°28'0 0.0
2017-Oct-15 16:56N 34°35' E 135°28'0 0.0
2017-Oct-15 16:14N 34°35' E 135°28'0 0.0
2017-Oct-15 15:56N 34°35' E 135°28'0 0.1
2017-Oct-15 15:20N 34°35' E 135°28'0 0.1
2017-Oct-15 14:56N 34°35' E 135°28'0 0.0
2017-Oct-15 13:38N 34°35' E 135°28'0 0.0
2017-Oct-15 13:27N 34°35' E 135°28'1 1.3
2017-Oct-15 13:00N 34°35' E 135°27'5 9.8
2017-Oct-15 12:30N 34°36' E 135°21'612.4
2017-Oct-15 12:00N 34°35' E 135°14'612.7
2017-Oct-15 11:30N 34°35' E 135°06'611.7
2017-Oct-15 10:59N 34°37' E 134°59'711.5
2017-Oct-15 10:25N 34°38' E 134°51'612.5
2017-Oct-15 09:56N 34°41' E 134°45'14 0.7
2017-Oct-14 15:12N 34°37' E 135°01'2 9.0
2017-Oct-14 14:59N 34°36' E 135°03'4 7.8
2017-Oct-14 14:30N 34°33' E 135°05'611.1
2017-Oct-14 14:00N 34°27' E 135°03'611.0
2017-Oct-14 13:29N 34°22' E 135°01'510.1
2017-Oct-14 12:57N 34°17' E 134°59'510.7
2017-Oct-14 12:30N 34°12' E 134°60'611.5
2017-Oct-14 11:58N 34°06' E 135°01'  

Dump ship's entire track history